Time;durP1;ratioP1;P1;durP2;ratioP2;P2;SDS_P1;SDS_P2;PMS_P1;PMS_P2;Temp;Humidity;BMP_temperature;BMP_pressure;BME280_temperature;BME280_humidity;BME280_pressure;Samples;Min_cycle;Max_cycle;Signal;HPM_P1;HPM_P2
2022/08/10 00:00:20;;;;;;;3.35;2.50;;;;;;;17.07;69.51;100443.97;5052000;28;20029;-55
2022/08/10 00:02:51;;;;;;;5.32;2.70;;;;;;;17.04;69.53;100447.00;5052108;28;20095;-53
2022/08/10 00:05:17;;;;;;;6.32;2.78;;;;;;;16.98;69.81;100444.91;5050689;28;20431;-53
2022/08/10 00:07:43;;;;;;;3.78;2.67;;;;;;;17.02;69.43;100446.31;5051857;28;20036;-53
2022/08/10 00:10:11;;;;;;;5.00;3.05;;;;;;;17.19;68.56;100451.91;5035643;28;20035;-56
2022/08/10 00:12:37;;;;;;;8.38;3.00;;;;;;;17.05;68.96;100446.00;5030531;28;20037;-53
2022/08/10 00:15:04;;;;;;;5.65;2.58;;;;;;;17.16;68.23;100442.22;5031687;28;20049;-54
2022/08/10 00:17:29;;;;;;;4.90;2.78;;;;;;;17.05;69.04;100440.59;5032835;28;20096;-56
2022/08/10 00:19:55;;;;;;;4.55;3.03;;;;;;;16.98;69.14;100436.78;5033276;28;20519;-52
2022/08/10 00:22:21;;;;;;;4.15;2.88;;;;;;;16.91;69.22;100438.38;5032502;28;20032;-52
2022/08/10 00:24:46;;;;;;;4.30;3.30;;;;;;;16.87;69.42;100442.34;5031479;28;20045;-55
2022/08/10 00:27:12;;;;;;;7.10;3.17;;;;;;;16.88;69.41;100438.66;5030570;28;20389;-53
2022/08/10 00:29:37;;;;;;;5.15;2.80;;;;;;;16.85;69.45;100441.66;5032684;28;20033;-54
2022/08/10 00:32:03;;;;;;;4.63;2.92;;;;;;;16.82;69.50;100436.53;5031403;28;20029;-56
2022/08/10 00:34:30;;;;;;;6.18;3.30;;;;;;;16.77;69.64;100443.25;5031516;28;20033;-54
2022/08/10 00:36:56;;;;;;;4.78;2.72;;;;;;;16.69;69.59;100435.06;5032611;28;20036;-54
2022/08/10 00:39:22;;;;;;;6.32;2.83;;;;;;;16.71;69.83;100445.69;5031531;28;20033;-50
2022/08/10 00:41:47;;;;;;;4.20;3.10;;;;;;;16.69;69.93;100445.00;5031087;28;20112;-54
2022/08/10 00:44:13;;;;;;;5.50;2.95;;;;;;;16.73;69.83;100439.16;5030849;28;20393;-52
2022/08/10 00:46:38;;;;;;;4.70;3.15;;;;;;;16.57;69.81;100415.47;5031332;28;20029;-53
2022/08/10 00:49:04;;;;;;;3.72;3.10;;;;;;;16.68;69.63;100437.88;5032313;28;20026;-55
2022/08/10 00:51:30;;;;;;;3.20;2.50;;;;;;;16.60;69.88;100434.09;5031155;28;20582;-59
2022/08/10 00:53:55;;;;;;;3.83;2.63;;;;;;;16.64;69.79;100448.16;5030934;28;20025;-55
2022/08/10 00:56:21;;;;;;;3.38;2.40;;;;;;;16.62;69.73;100444.72;5031971;28;20037;-55
2022/08/10 00:58:47;;;;;;;4.20;2.80;;;;;;;16.65;69.79;100453.41;5031350;28;20104;-52
2022/08/10 01:01:13;;;;;;;4.88;2.70;;;;;;;16.60;69.68;100442.19;5031854;28;20030;-54
2022/08/10 01:03:38;;;;;;;6.13;2.75;;;;;;;16.61;69.89;100443.03;5030725;28;20030;-52
2022/08/10 01:06:14;;;;;;;4.20;2.65;;;;;;;16.68;69.87;100444.16;5031005;28;20084;-52
2022/08/10 01:09:05;;;;;;;3.90;2.67;;;;;;;16.69;70.01;100443.16;5050220;28;20048;-54
2022/08/10 01:11:54;;;;;;;3.17;2.60;;;;;;;16.78;69.81;100436.84;5051050;28;20053;-50
2022/08/10 01:14:19;;;;;;;2.75;2.15;;;;;;;16.71;69.30;100437.59;5049028;28;20037;-56
2022/08/10 01:17:16;;;;;;;3.80;2.50;;;;;;;16.76;69.74;100441.56;5050959;28;20032;-55
2022/08/10 01:20:03;;;;;;;3.95;2.60;;;;;;;16.70;70.04;100442.16;5047181;28;20060;-51
2022/08/10 01:22:47;;;;;;;5.00;2.22;;;;;;;16.68;70.19;100433.34;5049499;28;20191;-55
2022/08/10 01:25:41;;;;;;;5.90;2.13;;;;;;;16.63;70.09;100427.50;5049094;28;20146;-53
2022/08/10 01:28:27;;;;;;;5.93;2.35;;;;;;;16.58;70.12;100421.72;5030678;28;20388;-54
2022/08/10 01:30:57;;;;;;;3.67;2.40;;;;;;;16.52;70.03;100430.41;5029454;28;20033;-54
2022/08/10 01:34:04;;;;;;;5.28;2.42;;;;;;;16.56;70.69;100432.69;5031481;28;20392;-54
2022/08/10 01:36:34;;;;;;;3.38;2.60;;;;;;;16.51;70.06;100432.25;5013370;28;20370;-51
2022/08/10 01:39:03;;;;;;;4.20;2.38;;;;;;;16.48;70.48;100428.00;5030774;28;20124;-55
2022/08/10 01:41:34;;;;;;;4.38;2.42;;;;;;;16.48;70.58;100428.00;5044543;28;20389;-51
2022/08/10 01:44:08;;;;;;;6.70;2.70;;;;;;;16.48;70.64;100438.81;5050815;28;20044;-54
2022/08/10 01:46:36;;;;;;;5.60;2.67;;;;;;;16.35;70.65;100438.28;5048690;28;20025;-57
2022/08/10 01:49:07;;;;;;;3.65;2.40;;;;;;;16.41;70.95;100453.94;5049851;28;20029;-55
2022/08/10 01:51:39;;;;;;;2.55;2.20;;;;;;;16.40;71.11;100452.22;5050751;28;20040;-54
2022/08/10 01:54:13;;;;;;;6.20;2.42;;;;;;;16.38;70.90;100448.78;5048360;28;20495;-55
2022/08/10 01:56:42;;;;;;;2.83;2.05;;;;;;;16.34;71.07;100444.69;5050495;28;20540;-56
2022/08/10 01:59:15;;;;;;;4.55;2.47;;;;;;;16.35;71.25;100447.25;5030544;28;20053;-51
2022/08/10 02:01:46;;;;;;;3.55;2.03;;;;;;;16.33;71.03;100451.97;5031386;28;20034;-54
2022/08/10 02:04:14;;;;;;;2.50;2.30;;;;;;;16.32;71.19;100449.38;5030640;28;20041;-55
2022/08/10 02:06:44;;;;;;;7.00;2.33;;;;;;;16.37;71.01;100452.50;5033762;28;20059;-51
2022/08/10 02:09:14;;;;;;;2.97;2.45;;;;;;;16.41;70.97;100462.03;5039665;28;20354;-53
2022/08/10 02:11:42;;;;;;;3.50;2.28;;;;;;;16.41;70.95;100459.34;5053902;28;20106;-53
2022/08/10 02:14:12;;;;;;;4.68;2.17;;;;;;;16.45;70.76;100460.75;5052637;28;20032;-54
2022/08/10 02:16:41;;;;;;;7.03;2.50;;;;;;;16.47;70.68;100452.47;5053903;28;20033;-52
2022/08/10 02:19:09;;;;;;;3.75;2.60;;;;;;;16.50;70.70;100461.16;5053167;28;20040;-58
2022/08/10 02:21:36;;;;;;;4.15;2.28;;;;;;;16.50;70.55;100458.44;5035309;28;20049;-57
2022/08/10 02:24:03;;;;;;;3.53;2.67;;;;;;;16.56;70.43;100466.97;5034291;28;20040;-51
2022/08/10 02:26:29;;;;;;;3.42;2.65;;;;;;;16.59;70.27;100461.25;5034616;28;20036;-54
2022/08/10 02:28:55;;;;;;;3.67;2.30;;;;;;;16.57;70.02;100455.16;5033758;28;20929;-54
2022/08/10 02:31:24;;;;;;;3.10;2.55;;;;;;;16.66;69.99;100462.38;5033849;28;20487;-54
2022/08/10 02:33:53;;;;;;;4.68;2.67;;;;;;;16.70;69.69;100468.34;5034837;28;20065;-54
2022/08/10 02:36:20;;;;;;;2.97;2.60;;;;;;;16.81;69.53;100461.88;5033593;28;20052;-55
2022/08/10 02:38:52;;;;;;;3.00;2.30;;;;;;;16.75;69.12;100439.00;5034296;28;20076;-51
2022/08/10 02:41:29;;;;;;;4.20;2.55;;;;;;;17.12;69.15;100461.63;5033606;28;20033;-55
2022/08/10 02:44:03;;;;;;;3.08;2.25;;;;;;;17.15;68.49;100470.28;5034520;28;20045;-54
2022/08/10 02:46:38;;;;;;;2.72;2.40;;;;;;;17.24;68.09;100460.41;5033066;28;20378;-54
2022/08/10 02:49:05;;;;;;;2.75;2.40;;;;;;;17.23;67.83;100450.59;5033541;28;20401;-56
2022/08/10 02:51:51;;;;;;;3.80;2.80;;;;;;;17.52;67.67;100462.25;5034245;28;20060;-56
2022/08/10 02:54:21;;;;;;;3.33;2.53;;;;;;;17.62;66.67;100469.28;5033566;28;20072;-56
2022/08/10 02:57:03;;;;;;;3.80;2.50;;;;;;;17.90;66.04;100469.19;5033061;28;20033;-53
2022/08/10 02:59:33;;;;;;;3.58;2.30;;;;;;;18.07;65.26;100466.63;5051733;28;20430;-56
2022/08/10 03:02:03;;;;;;;3.17;2.63;;;;;;;18.20;64.48;100455.38;5053483;28;20465;-50
2022/08/10 03:04:40;;;;;;;4.00;2.05;;;;;;;18.29;64.66;100462.56;5053273;28;20040;-57
2022/08/10 03:07:11;;;;;;;4.45;2.40;;;;;;;18.26;64.20;100464.75;5036900;28;20033;-56
2022/08/10 03:09:39;;;;;;;5.15;2.50;;;;;;;18.18;64.17;100474.53;5031818;28;20489;-55
2022/08/10 03:12:07;;;;;;;4.32;2.75;;;;;;;17.97;64.50;100446.88;5033267;28;20502;-52
2022/08/10 03:14:36;;;;;;;4.22;2.65;;;;;;;18.08;64.50;100465.63;5050941;28;20037;-55
2022/08/10 03:17:02;;;;;;;3.00;2.70;;;;;;;18.05;64.55;100465.94;5050675;28;20092;-52
2022/08/10 03:19:31;;;;;;;2.95;2.67;;;;;;;18.01;64.59;100473.56;5050782;28;20911;-55
2022/08/10 03:21:58;;;;;;;10.07;3.45;;;;;;;17.96;64.80;100472.28;5051300;28;20348;-52
2022/08/10 03:24:26;;;;;;;3.67;2.90;;;;;;;17.83;64.82;100443.72;5052608;28;20052;-52
2022/08/10 03:26:53;;;;;;;5.80;2.88;;;;;;;18.02;64.70;100460.84;5050522;28;20142;-55
2022/08/10 03:29:21;;;;;;;4.57;2.80;;;;;;;18.15;64.01;100464.00;5052098;28;20029;-55
2022/08/10 03:31:48;;;;;;;2.97;2.53;;;;;;;18.33;63.58;100458.53;5049432;28;20040;-56
2022/08/10 03:34:15;;;;;;;5.65;2.88;;;;;;;18.52;62.94;100464.75;5052357;28;20091;-56
2022/08/10 03:36:41;;;;;;;2.97;2.70;;;;;;;18.72;62.25;100459.94;5052340;28;20082;-53
2022/08/10 03:39:07;;;;;;;2.88;2.63;;;;;;;18.88;60.96;100459.16;5050813;28;20037;-54
2022/08/10 03:41:43;;;;;;;5.60;2.55;;;;;;;19.17;60.38;100465.25;5052294;28;20386;-49
2022/08/10 03:44:11;;;;;;;3.08;2.53;;;;;;;19.39;59.50;100476.50;5052279;28;20424;-59
2022/08/10 03:46:41;;;;;;;3.53;2.60;;;;;;;19.63;58.75;100473.84;5051123;28;20037;-53
2022/08/10 03:49:08;;;;;;;4.82;2.40;;;;;;;19.93;57.33;100478.84;5052367;28;20462;-55
2022/08/10 03:51:35;;;;;;;2.40;2.20;;;;;;;20.61;55.18;100470.44;5050402;28;20032;-52
2022/08/10 03:54:02;;;;;;;3.20;2.35;;;;;;;21.51;52.60;100469.19;5052257;28;20828;-55
2022/08/10 03:56:28;;;;;;;3.42;2.00;;;;;;;21.90;51.19;100469.31;5051901;28;20028;-54
2022/08/10 03:58:54;;;;;;;1.70;1.60;;;;;;;22.02;50.38;100467.81;5049018;28;20346;-51
2022/08/10 04:01:21;;;;;;;3.20;2.15;;;;;;;22.46;49.37;100463.53;5052369;28;20051;-53
2022/08/10 04:03:46;;;;;;;4.13;2.00;;;;;;;23.65;46.12;100460.84;5049868;28;20029;-51
2022/08/10 04:06:12;;;;;;;4.70;1.95;;;;;;;24.98;42.55;100459.31;5051549;28;20040;-54
2022/08/10 04:08:42;;;;;;;5.03;2.00;;;;;;;26.18;40.49;100462.59;5052330;28;20029;-52
2022/08/10 04:11:11;;;;;;;3.47;1.88;;;;;;;26.73;39.08;100432.06;5050366;28;20080;-52
2022/08/10 04:13:37;;;;;;;4.15;2.00;;;;;;;26.70;38.60;100451.72;5050513;28;20430;-51
2022/08/10 04:16:05;;;;;;;2.20;2.00;;;;;;;26.18;39.28;100429.66;5050855;28;20049;-57
2022/08/10 04:18:31;;;;;;;4.10;1.73;;;;;;;26.11;39.28;100448.84;5049849;28;20037;-50
2022/08/10 04:21:10;;;;;;;4.15;2.00;;;;;;;25.44;41.44;100422.19;5046189;28;20393;-58
2022/08/10 04:23:39;;;;;;;4.25;1.90;;;;;;;24.74;42.04;100456.03;5040084;28;20112;-54
2022/08/10 04:26:05;;;;;;;4.55;1.80;;;;;;;24.58;42.59;100459.06;5047752;28;20086;-51
2022/08/10 04:28:31;;;;;;;4.30;2.00;;;;;;;24.93;41.43;100451.72;5038705;28;20112;-51
2022/08/10 04:30:58;;;;;;;2.30;2.10;;;;;;;26.09;39.67;100464.69;5050696;28;20112;-54
2022/08/10 04:33:25;;;;;;;3.13;2.10;;;;;;;27.76;36.23;100470.72;5047233;28;20025;-55
2022/08/10 04:35:52;;;;;;;2.42;2.22;;;;;;;29.40;33.35;100468.88;5036989;28;20044;-53
2022/08/10 04:38:20;;;;;;;3.65;2.22;;;;;;;30.71;30.78;100467.22;5046120;28;20035;-50
2022/08/10 04:40:46;;;;;;;2.67;2.05;;;;;;;31.90;28.94;100471.47;5030204;28;20493;-56
2022/08/10 04:43:11;;;;;;;9.52;2.42;;;;;;;32.85;27.66;100472.66;5038265;28;20057;-55
2022/08/10 04:45:38;;;;;;;3.83;2.15;;;;;;;33.64;26.36;100476.94;5050953;28;20075;-54
2022/08/10 04:48:03;;;;;;;3.10;1.83;;;;;;;34.27;25.37;100466.38;5035384;28;20175;-56
2022/08/10 04:50:29;;;;;;;4.57;2.05;;;;;;;34.00;25.32;100467.25;5043722;28;20056;-56
2022/08/10 04:52:54;;;;;;;3.28;2.15;;;;;;;33.76;25.39;100465.66;5033771;28;20493;-53
2022/08/10 04:55:20;;;;;;;4.65;1.85;;;;;;;34.45;24.81;100479.81;5049694;28;20116;-55
2022/08/10 04:57:45;;;;;;;5.43;1.75;;;;;;;35.23;23.75;100471.03;5038528;28;20034;-56
2022/08/10 05:00:11;;;;;;;2.65;1.50;;;;;;;35.53;23.46;100475.03;5031200;28;20025;-55
2022/08/10 05:02:37;;;;;;;1.88;1.63;;;;;;;35.21;23.90;100449.06;5032014;28;20044;-52
2022/08/10 05:05:03;;;;;;;1.95;1.30;;;;;;;34.29;24.58;100480.81;5041442;28;20032;-56
2022/08/10 05:07:28;;;;;;;4.53;1.55;;;;;;;32.71;26.31;100494.38;5032041;28;20037;-52
2022/08/10 05:09:54;;;;;;;4.18;1.50;;;;;;;31.17;28.66;100491.41;5031547;28;20040;-55
2022/08/10 05:12:20;;;;;;;4.80;1.38;;;;;;;29.65;30.92;100477.88;5030143;28;20053;-57
2022/08/10 05:14:45;;;;;;;3.42;1.38;;;;;;;28.45;33.25;100486.47;5031648;28;20040;-60
2022/08/10 05:17:11;;;;;;;5.18;1.67;;;;;;;27.48;35.17;100476.56;5044740;28;20041;-53
2022/08/10 05:19:37;;;;;;;5.30;1.42;;;;;;;26.47;37.23;100486.00;5031732;28;20048;-50
2022/08/10 05:22:03;;;;;;;1.63;1.20;;;;;;;25.69;38.97;100464.63;5029118;28;20489;-53
2022/08/10 05:24:29;;;;;;;3.53;1.88;;;;;;;25.11;39.99;100480.47;5046422;28;20099;-55
2022/08/10 05:26:55;;;;;;;3.30;1.65;;;;;;;24.61;41.06;100469.66;5031264;28;20040;-55
2022/08/10 05:29:20;;;;;;;2.45;1.65;;;;;;;24.28;41.79;100475.72;5037095;28;20040;-56
2022/08/10 05:31:46;;;;;;;2.97;1.73;;;;;;;24.05;42.57;100472.19;5036218;28;20084;-58
2022/08/10 05:34:12;;;;;;;2.20;1.50;;;;;;;23.97;42.64;100479.66;5031689;28;20037;-53
2022/08/10 05:36:38;;;;;;;1.77;1.40;;;;;;;23.77;43.34;100463.91;5050400;28;20097;-49
2022/08/10 05:39:03;;;;;;;6.40;1.85;;;;;;;23.99;43.28;100472.09;5050775;28;20508;-55
2022/08/10 05:41:30;;;;;;;5.90;1.92;;;;;;;24.26;42.43;100466.88;5053041;28;20040;-56
2022/08/10 05:43:56;;;;;;;3.00;1.50;;;;;;;24.61;41.91;100466.91;5054187;28;20471;-55
2022/08/10 05:46:21;;;;;;;5.45;1.92;;;;;;;24.70;42.20;100467.56;5053476;28;20146;-55
2022/08/10 05:48:48;;;;;;;3.28;1.80;;;;;;;24.64;42.34;100463.78;5034601;28;20112;-60
2022/08/10 05:51:15;;;;;;;4.10;1.52;;;;;;;24.45;42.46;100479.00;5034863;28;20061;-53
2022/08/10 05:53:40;;;;;;;5.13;1.77;;;;;;;24.21;43.38;100470.19;5038073;28;20043;-54
2022/08/10 05:56:07;;;;;;;4.38;1.83;;;;;;;24.21;43.65;100476.53;5044179;28;20026;-55
2022/08/10 05:58:36;;;;;;;4.18;1.73;;;;;;;24.53;42.87;100478.88;5033897;28;20036;-54
2022/08/10 06:01:12;;;;;;;6.20;1.88;;;;;;;25.27;41.59;100471.03;5033201;28;20386;-56
2022/08/10 06:03:43;;;;;;;;;;;;;;;27.10;39.08;100478.25;5035432;28;20112;-53
2022/08/10 06:06:09;;;;;;;9.13;2.03;;;;;;;28.59;34.82;100476.19;5033804;28;20384;-49
2022/08/10 06:08:37;;;;;;;4.93;2.00;;;;;;;28.49;34.61;100493.25;5037062;28;20071;-56
2022/08/10 06:11:04;;;;;;;4.63;2.25;;;;;;;28.04;35.56;100485.13;5051397;28;20047;-53
2022/08/10 06:16:18;;;;;;;4.85;1.60;;;;;;;28.66;34.11;100476.09;5038248;28;20378;-53
2022/08/10 06:18:44;;;;;;;2.72;1.55;;;;;;;29.10;33.62;100492.59;5049153;28;20219;-54
2022/08/10 06:21:10;;;;;;;4.03;1.30;;;;;;;29.97;32.17;100490.56;5053469;28;20488;-51
2022/08/10 06:23:36;;;;;;;3.28;1.65;;;;;;;30.92;30.32;100485.06;5051742;28;20040;-54
2022/08/10 06:26:02;;;;;;;5.03;1.42;;;;;;;31.50;29.27;100495.38;5043687;28;20393;-56
2022/08/10 06:28:31;;;;;;;2.90;1.70;;;;;;;31.91;29.19;100498.06;5042744;28;20116;-54
2022/08/10 06:30:59;;;;;;;1.92;1.40;;;;;;;33.62;26.43;100497.72;5051908;28;20045;-57
2022/08/10 06:33:25;;;;;;;5.25;1.80;;;;;;;35.02;24.58;100505.22;5042355;28;20054;-56
2022/08/10 06:35:53;;;;;;;4.93;1.67;;;;;;;36.87;22.07;100508.41;5053618;28;20119;-55
2022/08/10 06:38:23;;;;;;;3.65;1.80;;;;;;;38.77;20.26;100512.94;5038257;28;20029;-50
2022/08/10 06:40:53;;;;;;;3.40;1.40;;;;;;;40.60;18.43;100500.72;5033805;28;20029;-52
2022/08/10 06:43:21;;;;;;;4.15;1.70;;;;;;;42.54;16.50;100519.31;5034043;28;20037;-51
2022/08/10 06:45:53;;;;;;;2.35;1.50;;;;;;;44.22;15.30;100518.38;5033703;28;20060;-55
2022/08/10 06:48:24;;;;;;;3.45;1.40;;;;;;;45.15;14.30;100517.00;5032521;28;20041;-55
2022/08/10 06:50:56;;;;;;;8.10;1.73;;;;;;;45.83;13.44;100510.34;5051600;28;20052;-53
2022/08/10 06:53:24;;;;;;;2.47;1.52;;;;;;;46.61;12.45;100506.16;5052421;28;20044;-55
2022/08/10 06:56:10;;;;;;;3.83;1.65;;;;;;;47.36;12.57;100518.28;5053361;28;20094;-55
2022/08/10 06:58:39;;;;;;;1.90;1.20;;;;;;;47.08;11.31;100508.50;5052867;28;20119;-55
2022/08/10 07:01:07;;;;;;;3.42;1.13;;;;;;;47.39;11.39;100506.22;5053010;28;20025;-55
2022/08/10 07:03:37;;;;;;;4.47;1.85;;;;;;;47.47;11.35;100519.41;5037159;28;20504;-57
2022/08/10 07:06:05;;;;;;;2.38;1.35;;;;;;;45.35;12.49;100515.38;5036119;28;20048;-57
2022/08/10 07:08:33;;;;;;;1.17;1.10;;;;;;;44.43;13.00;100515.69;5050562;28;20036;-57
2022/08/10 07:11:01;;;;;;;1.92;1.10;;;;;;;44.82;12.65;100515.69;5033744;28;20041;-56
2022/08/10 07:13:29;;;;;;;4.45;1.52;;;;;;;45.18;12.33;100510.66;5041487;28;20041;-56
2022/08/10 07:15:57;;;;;;;2.05;1.40;;;;;;;46.42;11.70;100499.03;5052272;28;20071;-55
2022/08/10 07:18:24;;;;;;;2.83;1.58;;;;;;;47.74;10.64;100494.25;5038907;28;20025;-58
2022/08/10 07:20:53;;;;;;;2.15;1.52;;;;;;;47.46;10.66;100514.09;5040547;28;20033;-58
2022/08/10 07:23:23;;;;;;;3.92;1.20;;;;;;;48.42;10.20;100517.22;5032405;28;20120;-56
2022/08/10 07:25:50;;;;;;;3.33;1.40;;;;;;;48.28;9.93;100507.09;5033429;28;20091;-56
2022/08/10 07:28:17;;;;;;;4.97;1.50;;;;;;;48.01;9.92;100497.44;5032172;28;20095;-56
2022/08/10 07:30:43;;;;;;;5.72;1.30;;;;;;;48.62;9.43;100480.38;5031955;28;20047;-56
2022/08/10 07:33:12;;;;;;;3.28;1.58;;;;;;;49.02;9.56;100506.88;5041766;28;20033;-53
2022/08/10 07:35:42;;;;;;;2.28;1.38;;;;;;;50.05;8.81;100506.59;5051980;28;20029;-55
2022/08/10 07:38:11;;;;;;;1.70;1.58;;;;;;;50.37;8.38;100511.25;5051962;28;20133;-55
2022/08/10 07:40:38;;;;;;;1.85;1.35;;;;;;;49.38;8.80;100517.03;5051583;28;20037;-54
2022/08/10 07:43:06;;;;;;;1.70;1.60;;;;;;;46.51;10.57;100490.47;5052113;28;20056;-56
2022/08/10 07:45:34;;;;;;;1.75;1.65;;;;;;;45.15;11.43;100503.69;5051040;28;20045;-57
2022/08/10 07:48:08;;;;;;;3.25;1.35;;;;;;;45.78;11.23;100504.88;5043481;28;20493;-57
2022/08/10 07:50:37;;;;;;;3.08;1.13;;;;;;;44.68;11.68;100500.97;5051558;28;20415;-56
2022/08/10 07:53:05;;;;;;;1.55;1.45;;;;;;;43.80;12.30;100499.19;5051119;28;20037;-55
2022/08/10 07:55:31;;;;;;;2.13;1.55;;;;;;;43.43;12.46;100501.53;5051772;28;20043;-58
2022/08/10 07:58:00;;;;;;;1.73;1.30;;;;;;;45.33;11.31;100499.94;5050036;28;20035;-57
2022/08/10 08:00:29;;;;;;;1.50;1.40;;;;;;;46.04;10.21;100500.94;5051840;28;20028;-56
2022/08/10 08:02:57;;;;;;;1.88;1.25;;;;;;;43.91;11.89;100496.88;5051586;28;20108;-55
2022/08/10 08:05:26;;;;;;;1.50;1.40;;;;;;;42.96;12.58;100488.84;5036406;28;20052;-57
2022/08/10 08:07:54;;;;;;;2.63;1.40;;;;;;;44.22;11.62;100483.72;5051645;28;20456;-55
2022/08/10 08:10:23;;;;;;;3.15;1.30;;;;;;;45.13;10.88;100479.78;5051030;28;20049;-54
2022/08/10 08:12:50;;;;;;;2.42;1.50;;;;;;;45.00;11.02;100487.38;5031496;28;20030;-56
2022/08/10 08:15:19;;;;;;;2.10;1.30;;;;;;;42.41;13.00;100496.53;5031318;28;20234;-55
2022/08/10 08:17:47;;;;;;;1.92;1.30;;;;;;;39.59;14.98;100475.78;5032243;28;20462;-56
2022/08/10 08:20:14;;;;;;;2.28;1.60;;;;;;;37.83;16.64;100477.75;5031531;28;20040;-56
2022/08/10 08:22:41;;;;;;;1.30;1.20;;;;;;;36.14;18.17;100474.25;5049549;28;20060;-54
2022/08/10 08:25:07;;;;;;;5.00;1.50;;;;;;;34.60;20.28;100469.91;5050079;28;20031;-55
2022/08/10 08:27:33;;;;;;;2.92;1.40;;;;;;;33.70;21.19;100468.63;5045011;28;20048;-56
2022/08/10 08:30:01;;;;;;;1.83;1.48;;;;;;;32.92;22.36;100478.88;5038768;28;20021;-58
2022/08/10 08:32:30;;;;;;;5.47;1.52;;;;;;;32.04;23.28;100471.97;5043848;28;20111;-57
2022/08/10 08:35:00;;;;;;;1.88;1.40;;;;;;;31.17;24.19;100470.09;5044831;28;20060;-55
2022/08/10 08:37:27;;;;;;;5.13;1.50;;;;;;;30.70;24.66;100465.53;5042311;28;20033;-58
2022/08/10 08:39:53;;;;;;;2.15;1.20;;;;;;;30.18;25.48;100458.81;5036515;28;20040;-57
2022/08/10 08:42:31;;;;;;;3.70;1.45;;;;;;;30.03;25.36;100466.72;5041979;28;20032;-56
2022/08/10 08:45:34;;;;;;;4.72;1.10;;;;;;;30.00;24.51;100464.41;5047226;28;20041;-54
2022/08/10 08:48:18;;;;;;;1.65;1.17;;;;;;;29.85;24.37;100465.69;5047353;28;20145;-54
2022/08/10 08:50:58;;;;;;;3.20;1.17;;;;;;;28.87;26.02;100469.34;5036442;28;20128;-57
2022/08/10 08:53:48;;;;;;;3.55;1.20;;;;;;;28.62;26.18;100469.38;5045278;28;20032;-56
2022/08/10 08:56:35;;;;;;;2.88;1.17;;;;;;;28.70;25.76;100471.00;5030801;28;20167;-53
2022/08/10 08:59:25;;;;;;;3.95;1.58;;;;;;;28.39;26.42;100475.56;5046089;28;20111;-55
2022/08/10 09:02:35;;;;;;;2.60;1.20;;;;;;;28.64;26.03;100461.72;5040243;28;20120;-54
2022/08/10 09:05:13;;;;;;;3.45;1.40;;;;;;;28.68;25.86;100460.19;5032222;28;20067;-52
2022/08/10 09:08:05;;;;;;;2.05;1.00;;;;;;;29.03;24.89;100461.50;5042447;28;20029;-49
2022/08/10 09:10:42;;;;;;;1.38;1.10;;;;;;;28.96;24.99;100464.38;5049099;28;20048;-54
2022/08/10 09:13:29;;;;;;;4.00;1.20;;;;;;;28.82;25.15;100463.69;5050266;28;20037;-64
2022/08/10 09:16:23;;;;;;;3.78;1.20;;;;;;;28.69;25.59;100447.25;5036218;28;20118;-54
2022/08/10 09:18:51;;;;;;;4.30;1.40;;;;;;;28.65;26.23;100446.88;5030399;28;20063;-56
2022/08/10 09:21:34;;;;;;;1.95;1.48;;;;;;;28.77;26.01;100453.31;5032320;28;20044;-53
2022/08/10 09:24:09;;;;;;;2.53;1.60;;;;;;;28.47;26.43;100428.44;5035939;28;20056;-52
2022/08/10 09:26:56;;;;;;;5.83;1.47;;;;;;;28.93;25.51;100446.38;5030322;28;20120;-60
2022/08/10 09:29:26;;;;;;;2.50;1.40;;;;;;;28.94;26.08;100448.06;5031292;28;20121;-52
2022/08/10 09:32:06;;;;;;;4.88;1.20;;;;;;;28.83;26.03;100440.56;5028953;28;20466;-52
2022/08/10 09:34:59;;;;;;;2.78;1.30;;;;;;;29.00;25.40;100431.66;5031916;28;20045;-53
2022/08/10 09:37:41;;;;;;;2.78;1.20;;;;;;;28.85;25.38;100434.81;5042071;28;20043;-58
2022/08/10 09:40:16;;;;;;;4.43;1.40;;;;;;;28.55;25.53;100441.06;5040829;28;20040;-55
2022/08/10 09:42:50;;;;;;;2.23;1.00;;;;;;;28.57;25.41;100430.66;5046820;28;20040;-54
2022/08/10 09:45:46;;;;;;;1.88;1.25;;;;;;;28.72;25.17;100430.28;5049681;28;20119;-53
2022/08/10 09:48:42;;;;;;;6.30;1.42;;;;;;;28.82;25.58;100436.13;5033356;28;20037;-55
2022/08/10 09:51:26;;;;;;;;;;;;;;;29.27;24.69;100423.00;5033767;28;20040;-55
2022/08/10 09:54:10;;;;;;;1.42;1.10;;;;;;;28.59;25.87;100425.75;5035708;28;19958;-56
2022/08/10 09:56:57;;;;;;;3.95;1.30;;;;;;;28.19;26.61;100429.78;5041082;28;20037;-51
2022/08/10 09:59:42;;;;;;;2.45;1.30;;;;;;;28.27;27.03;100425.88;5039923;28;20053;-52
2022/08/10 10:02:28;;;;;;;2.00;1.27;;;;;;;28.36;27.02;100400.59;5040438;28;20032;-53
2022/08/10 10:05:15;;;;;;;3.25;1.08;;;;;;;28.63;26.98;100429.72;5035877;28;20042;-54
2022/08/10 10:07:48;;;;;;;2.55;1.65;;;;;;;28.56;26.91;100427.03;5046681;28;20040;-62
2022/08/10 10:10:28;;;;;;;4.28;1.20;;;;;;;28.83;27.00;100428.69;5051035;28;20040;-54
2022/08/10 10:13:02;;;;;;;5.03;1.67;;;;;;;28.88;26.61;100432.44;5048534;28;20044;-54
2022/08/10 10:15:49;;;;;;;3.15;1.33;;;;;;;28.88;26.85;100426.06;5030303;28;20170;-54
2022/08/10 10:18:36;;;;;;;1.85;1.35;;;;;;;28.59;27.19;100436.78;5030332;28;20124;-54
2022/08/10 10:21:01;;;;;;;1.20;1.10;;;;;;;28.36;27.45;100432.78;5030009;28;20040;-52
2022/08/10 10:23:51;;;;;;;4.10;1.60;;;;;;;28.38;27.60;100438.91;5044540;28;20032;-52
2022/08/10 10:26:39;;;;;;;3.50;1.58;;;;;;;28.08;28.25;100436.81;5031531;28;20052;-53
2022/08/10 10:29:31;;;;;;;4.22;1.38;;;;;;;28.12;28.20;100432.53;5031895;28;20056;-51
2022/08/10 10:32:07;;;;;;;3.42;1.30;;;;;;;28.18;27.78;100434.41;5033438;28;20067;-51
2022/08/10 10:35:10;;;;;;;4.70;1.30;;;;;;;28.32;27.61;100431.56;5048863;28;20499;-55
2022/08/10 10:37:36;;;;;;;2.45;1.33;;;;;;;28.36;27.43;100422.63;5051077;28;20067;-56
2022/08/10 10:40:03;;;;;;;3.60;1.42;;;;;;;28.58;27.45;100421.31;5051343;28;20037;-51
2022/08/10 10:42:51;;;;;;;3.85;1.80;;;;;;;28.50;26.97;100395.78;5038270;28;20033;-54
2022/08/10 10:45:19;;;;;;;2.38;1.52;;;;;;;28.69;26.71;100430.72;5040521;28;20082;-59
2022/08/10 10:48:00;;;;;;;1.20;1.10;;;;;;;28.77;26.81;100424.91;5040346;28;20072;-54
2022/08/10 10:50:25;;;;;;;3.42;1.30;;;;;;;28.71;26.94;100412.91;5044163;28;20128;-54
2022/08/10 10:52:57;;;;;;;3.63;1.42;;;;;;;28.82;26.85;100421.50;5039964;28;20439;-51
2022/08/10 10:55:41;;;;;;;2.63;1.67;;;;;;;28.97;26.27;100416.44;5051742;28;20536;-50
2022/08/10 10:58:18;;;;;;;3.22;1.23;;;;;;;28.39;26.54;100420.47;5052567;28;20040;-54
2022/08/10 11:00:53;;;;;;;2.50;1.45;;;;;;;28.08;27.07;100410.13;5052672;28;20029;-54
2022/08/10 11:03:43;;;;;;;4.50;1.60;;;;;;;28.19;27.33;100418.75;5051070;28;20121;-52
2022/08/10 11:06:23;;;;;;;3.38;1.30;;;;;;;28.39;27.05;100424.06;5032585;28;20539;-50
2022/08/10 11:08:54;;;;;;;1.98;1.60;;;;;;;28.35;26.56;100428.34;5032993;28;20033;-53
2022/08/10 11:11:34;;;;;;;2.25;1.33;;;;;;;28.01;27.10;100411.28;5048175;28;20056;-53
2022/08/10 11:14:31;;;;;;;5.65;1.75;;;;;;;27.84;26.82;100431.09;5051436;28;20052;-54
2022/08/10 11:17:04;;;;;;;1.00;1.00;;;;;;;27.37;27.41;100415.75;5046643;28;20447;-49
2022/08/10 11:19:38;;;;;;;2.47;1.30;;;;;;;27.21;28.22;100399.75;5049399;28;20022;-55
2022/08/10 11:22:04;;;;;;;2.23;1.47;;;;;;;27.50;27.88;100411.22;5036720;28;20941;-54
2022/08/10 11:24:40;;;;;;;1.30;1.10;;;;;;;27.79;27.29;100411.69;5038636;28;20056;-60
2022/08/10 11:27:33;;;;;;;1.15;1.00;;;;;;;27.99;26.77;100417.00;5042070;28;20036;-57
2022/08/10 11:30:11;;;;;;;1.42;1.30;;;;;;;28.14;26.38;100413.91;5036280;28;20059;-57
2022/08/10 11:32:52;;;;;;;2.22;1.20;;;;;;;27.91;26.70;100393.34;5042769;28;20558;-55
2022/08/10 11:35:47;;;;;;;2.08;1.17;;;;;;;28.14;26.52;100424.06;5042115;28;20033;-60
2022/08/10 11:38:39;;;;;;;1.17;1.08;;;;;;;28.06;26.77;100405.94;5040514;28;20119;-55
2022/08/10 11:41:45;;;;;;;3.17;1.60;;;;;;;28.36;26.49;100413.50;5041025;28;20060;-63
2022/08/10 11:44:24;;;;;;;4.22;1.40;;;;;;;28.04;26.13;100422.66;5031845;28;20041;-55
2022/08/10 11:47:10;;;;;;;1.60;1.40;;;;;;;27.79;25.53;100414.44;5046140;28;20541;-56
2022/08/10 11:49:43;;;;;;;2.72;1.30;;;;;;;27.63;25.60;100413.06;5051802;28;20029;-57
2022/08/10 11:52:15;;;;;;;4.55;1.40;;;;;;;27.46;25.31;100420.97;5044394;28;20416;-58